createdAt,value
2018-01-22T00:01:55.595Z,76.30
2018-01-22T00:04:29.444Z,76.50
2018-01-22T00:07:03.233Z,76.50
2018-01-22T00:09:37.005Z,76.40
2018-01-22T00:12:10.776Z,76.30
2018-01-22T00:14:44.519Z,76.00
2018-01-22T00:17:18.283Z,76.20
2018-01-22T00:19:52.054Z,76.30
2018-01-22T00:22:25.795Z,76.40
2018-01-22T00:24:59.565Z,76.10
2018-01-22T00:27:33.338Z,75.90
2018-01-22T00:30:06.987Z,76.00
2018-01-22T00:32:40.714Z,75.80
2018-01-22T00:35:14.517Z,75.90
2018-01-22T00:37:48.207Z,75.80
2018-01-22T00:40:21.926Z,75.50
2018-01-22T00:42:55.635Z,75.70
2018-01-22T00:45:29.378Z,75.80
2018-01-22T00:48:03.072Z,75.90
2018-01-22T00:50:37.457Z,75.90
2018-01-22T00:53:11.267Z,75.90
2018-01-22T00:55:45.304Z,75.90
2018-01-22T00:58:20.486Z,76.00
2018-01-22T01:00:54.213Z,76.30
2018-01-22T01:03:29.350Z,76.40
2018-01-22T01:06:03.127Z,76.10
2018-01-22T01:08:37.753Z,76.00
2018-01-22T01:11:12.383Z,75.90
2018-01-22T01:13:47.766Z,75.90
2018-01-22T01:16:22.285Z,75.80
2018-01-22T01:18:55.881Z,76.00
2018-01-22T01:21:29.697Z,76.10
2018-01-22T01:24:03.402Z,75.70
2018-01-22T01:26:37.785Z,76.40
2018-01-22T01:29:12.180Z,76.60
2018-01-22T01:31:46.557Z,76.30
2018-01-22T01:34:20.920Z,76.30
2018-01-22T01:36:55.457Z,75.30
2018-01-22T01:39:30.390Z,75.30
2018-01-22T01:42:04.037Z,74.80
2018-01-22T01:44:38.926Z,75.00
2018-01-22T01:47:13.451Z,74.80
2018-01-22T01:49:48.797Z,74.60
2018-01-22T01:52:22.686Z,74.70
2018-01-22T01:54:57.965Z,74.30
2018-01-22T01:57:33.847Z,74.30
2018-01-22T02:00:08.399Z,74.40
2018-01-22T02:02:42.507Z,74.40
2018-01-22T02:05:17.039Z,74.10
2018-01-22T02:07:50.828Z,74.10
2018-01-22T02:10:24.564Z,74.00
2018-01-22T02:12:58.311Z,73.90
2018-01-22T02:15:33.594Z,73.30
2018-01-22T02:18:07.525Z,73.30
2018-01-22T02:20:41.327Z,73.10
2018-01-22T02:23:15.168Z,72.60
2018-01-22T02:25:48.961Z,72.80
2018-01-22T02:28:23.144Z,72.40
2018-01-22T02:30:57.541Z,72.40
2018-01-22T02:33:32.736Z,72.50
2018-01-22T02:36:06.632Z,72.50
2018-01-22T02:38:41.212Z,72.80
2018-01-22T02:41:15.806Z,72.60
2018-01-22T02:43:50.192Z,72.40
2018-01-22T02:46:24.716Z,72.10
2018-01-22T02:49:00.013Z,72.60
2018-01-22T02:51:34.156Z,72.60
2018-01-22T02:54:07.898Z,72.80
2018-01-22T02:56:41.668Z,73.10
2018-01-22T02:59:16.210Z,73.00
2018-01-22T03:01:50.952Z,74.20
2018-01-22T03:04:24.730Z,73.30
2018-01-22T03:06:58.595Z,73.50
2018-01-22T03:09:32.306Z,73.10
2018-01-22T03:12:05.936Z,73.10
2018-01-22T03:14:39.742Z,73.30
2018-01-22T03:17:13.484Z,73.20
2018-01-22T03:19:47.120Z,73.60
2018-01-22T03:22:20.744Z,73.30
2018-01-22T03:24:55.400Z,73.50
2018-01-22T03:27:29.928Z,73.20
2018-01-22T03:30:04.092Z,73.10
2018-01-22T03:32:37.962Z,72.60
2018-01-22T03:35:12.450Z,72.10
2018-01-22T03:37:46.254Z,72.10
2018-01-22T03:40:20.060Z,72.30
2018-01-22T03:42:53.764Z,71.90
2018-01-22T03:45:27.425Z,71.70
2018-01-22T03:48:01.070Z,71.30
2018-01-22T03:50:34.786Z,71.60
2018-01-22T03:53:08.566Z,71.20
2018-01-22T03:55:42.353Z,71.10
2018-01-22T03:58:16.220Z,70.90
2018-01-22T04:00:50.032Z,70.50
2018-01-22T04:03:24.612Z,70.40
2018-01-22T04:05:58.965Z,70.40
2018-01-22T04:08:33.754Z,71.00
2018-01-22T04:11:07.335Z,70.70
2018-01-22T04:13:42.067Z,70.20
2018-01-22T04:16:17.367Z,70.10
2018-01-22T04:18:52.176Z,70.10
2018-01-22T04:21:25.916Z,69.80
2018-01-22T04:24:00.015Z,69.60
2018-01-22T04:26:35.168Z,68.70
2018-01-22T04:29:08.824Z,68.60
2018-01-22T04:31:43.872Z,68.80
2018-01-22T04:34:17.658Z,68.80
2018-01-22T04:36:51.503Z,68.70
2018-01-22T04:39:25.552Z,68.70
2018-01-22T04:41:59.376Z,67.80
2018-01-22T04:44:33.345Z,67.80
2018-01-22T04:47:07.052Z,67.10
2018-01-22T04:49:40.822Z,67.60
2018-01-22T04:52:14.432Z,66.90
2018-01-22T04:54:49.654Z,66.70
2018-01-22T04:57:23.554Z,66.00
2018-01-22T04:59:57.377Z,65.80
2018-01-22T05:02:31.184Z,65.10
2018-01-22T05:05:04.886Z,64.70
2018-01-22T05:07:38.679Z,65.20
2018-01-22T05:10:13.033Z,64.50
2018-01-22T05:12:48.296Z,63.90
2018-01-22T05:15:21.927Z,63.80
2018-01-22T05:17:55.635Z,64.00
2018-01-22T05:20:30.255Z,64.60
2018-01-22T05:23:03.995Z,64.50
2018-01-22T05:25:37.757Z,64.20
2018-01-22T05:28:11.560Z,64.50
2018-01-22T05:30:45.421Z,64.70
2018-01-22T05:33:20.891Z,65.30
2018-01-22T05:35:54.668Z,65.30
2018-01-22T05:38:29.457Z,65.60
2018-01-22T05:41:03.978Z,68.10
2018-01-22T05:43:37.762Z,68.00
2018-01-22T05:46:12.989Z,68.10
2018-01-22T05:48:48.873Z,69.70
2018-01-22T05:51:22.663Z,69.70
2018-01-22T05:53:56.531Z,70.20
2018-01-22T05:56:30.353Z,71.30
2018-01-22T05:59:06.331Z,71.90
2018-01-22T06:01:39.990Z,72.20
2018-01-22T06:04:14.598Z,73.80
2018-01-22T06:06:49.686Z,74.90
2018-01-22T06:09:23.345Z,74.80
2018-01-22T06:11:57.918Z,76.30
2018-01-22T06:14:32.616Z,78.00
2018-01-22T06:17:06.220Z,78.50
2018-01-22T06:19:40.165Z,80.10
2018-01-22T06:22:13.920Z,80.90
2018-01-22T06:24:47.590Z,81.30
2018-01-22T06:27:21.476Z,83.20
2018-01-22T06:29:55.244Z,84.10
2018-01-22T06:32:29.024Z,85.30
2018-01-22T06:35:02.832Z,86.40
2018-01-22T06:37:36.663Z,87.10
2018-01-22T06:40:10.576Z,86.90
2018-01-22T06:42:45.395Z,87.40
2018-01-22T06:45:20.103Z,86.70
2018-01-22T06:47:53.863Z,87.50
2018-01-22T06:50:28.346Z,88.30
2018-01-22T06:53:02.956Z,88.50
2018-01-22T06:55:36.684Z,88.50
2018-01-22T06:58:10.520Z,88.80
2018-01-22T07:00:44.299Z,88.60
2018-01-22T07:03:18.086Z,89.20
2018-01-22T07:05:52.744Z,89.00
2018-01-22T07:08:26.404Z,89.00
2018-01-22T07:11:00.252Z,89.50
2018-01-22T07:13:34.032Z,89.20
2018-01-22T07:16:08.753Z,89.30
2018-01-22T07:18:43.192Z,89.50
2018-01-22T07:21:16.869Z,89.40
2018-01-22T07:23:50.622Z,89.80
2018-01-22T07:26:24.432Z,89.90
2018-01-22T07:28:58.490Z,89.50
2018-01-22T07:31:32.063Z,89.70
2018-01-22T07:34:05.835Z,89.70
2018-01-22T07:36:39.772Z,89.70
2018-01-22T07:39:13.413Z,89.90
2018-01-22T07:41:47.811Z,89.40
2018-01-22T07:44:21.610Z,89.50
2018-01-22T07:46:55.381Z,89.60
2018-01-22T07:49:29.142Z,89.40
2018-01-22T07:52:02.854Z,89.20
2018-01-22T07:54:36.563Z,88.70
2018-01-22T07:57:11.147Z,88.30
2018-01-22T07:59:45.092Z,88.30
2018-01-22T08:02:18.807Z,88.10
2018-01-22T08:04:52.551Z,88.10
2018-01-22T08:07:26.316Z,86.70
2018-01-22T08:10:00.539Z,87.80
2018-01-22T08:12:35.264Z,87.40
2018-01-22T08:15:09.102Z,86.60
2018-01-22T08:17:42.921Z,86.60
2018-01-22T08:20:18.559Z,86.70
2018-01-22T08:22:52.306Z,86.60
2018-01-22T08:25:26.616Z,86.20
2018-01-22T08:28:00.249Z,86.20
2018-01-22T08:30:34.808Z,86.00
2018-01-22T08:33:08.681Z,85.90
2018-01-22T08:35:43.172Z,85.30
2018-01-22T08:38:17.788Z,86.60
2018-01-22T08:40:51.700Z,86.60
2018-01-22T08:43:25.387Z,86.60
2018-01-22T08:45:59.134Z,87.30
2018-01-22T08:48:32.909Z,87.80
2018-01-22T08:51:06.593Z,88.00
2018-01-22T08:53:40.331Z,88.40
2018-01-22T08:56:14.012Z,88.20
2018-01-22T08:58:47.736Z,87.90
2018-01-22T09:01:21.533Z,87.10
2018-01-22T09:03:55.235Z,86.90
2018-01-22T09:06:28.914Z,86.90
2018-01-22T09:09:02.649Z,85.80
2018-01-22T09:11:36.622Z,86.70
2018-01-22T09:14:10.387Z,86.00
2018-01-22T09:16:44.415Z,85.20
2018-01-22T09:19:18.147Z,84.90
2018-01-22T09:21:51.880Z,84.90
2018-01-22T09:24:26.045Z,84.40
2018-01-22T09:26:59.701Z,83.60
2018-01-22T09:29:33.373Z,83.40
2018-01-22T09:32:07.173Z,83.00
2018-01-22T09:34:42.025Z,83.00
2018-01-22T09:37:15.731Z,82.70
2018-01-22T09:39:51.203Z,83.10
2018-01-22T09:42:24.791Z,83.10
2018-01-22T09:44:58.569Z,83.90
2018-01-22T09:47:33.460Z,83.60
2018-01-22T09:50:07.234Z,83.60
2018-01-22T09:52:41.856Z,84.50
2018-01-22T09:55:16.752Z,83.30
2018-01-22T09:57:50.548Z,83.30
2018-01-22T10:00:25.110Z,80.50
2018-01-22T10:02:58.949Z,80.50
2018-01-22T10:05:32.623Z,80.50
2018-01-22T10:08:06.432Z,81.30
2018-01-22T10:10:40.972Z,80.00
2018-01-22T10:13:15.577Z,82.10
2018-01-22T10:15:49.432Z,81.50
2018-01-22T10:18:23.741Z,82.80
2018-01-22T10:20:57.484Z,79.00
2018-01-22T10:23:31.935Z,79.40
2018-01-22T10:26:05.648Z,79.60
2018-01-22T10:28:39.424Z,78.40
2018-01-22T10:31:14.260Z,77.20
2018-01-22T10:33:49.266Z,77.20
2018-01-22T10:36:23.002Z,78.00
2018-01-22T10:38:57.728Z,78.80
2018-01-22T10:41:32.428Z,78.70
2018-01-22T10:44:06.293Z,78.30
2018-01-22T10:46:40.117Z,79.50
2018-01-22T10:49:13.934Z,79.90
2018-01-22T10:51:48.049Z,80.40
2018-01-22T10:54:21.871Z,82.20
2018-01-22T10:56:56.399Z,82.10
2018-01-22T10:59:30.231Z,82.10
2018-01-22T11:02:04.308Z,83.50
2018-01-22T11:04:38.059Z,82.30
2018-01-22T11:07:11.684Z,83.40
2018-01-22T11:09:46.162Z,85.30
2018-01-22T11:12:20.709Z,85.20
2018-01-22T11:14:54.701Z,85.20
2018-01-22T11:17:28.887Z,85.70
2018-01-22T11:20:03.858Z,85.00
2018-01-22T11:22:37.679Z,84.70
2018-01-22T11:25:12.040Z,84.40
2018-01-22T11:27:45.894Z,84.20
2018-01-22T11:30:20.767Z,84.20
2018-01-22T11:32:54.558Z,83.70
2018-01-22T11:35:28.280Z,83.80
2018-01-22T11:38:03.206Z,84.20
2018-01-22T11:40:37.745Z,83.00
2018-01-22T11:43:12.375Z,84.00
2018-01-22T11:45:46.501Z,84.00
2018-01-22T11:48:21.022Z,83.20
2018-01-22T11:50:54.758Z,81.70
2018-01-22T11:53:30.426Z,81.40
2018-01-22T11:56:04.167Z,81.40
2018-01-22T11:58:38.865Z,80.00
2018-01-22T12:01:14.102Z,81.60
2018-01-22T12:03:47.935Z,81.60
2018-01-22T12:06:23.037Z,81.90
2018-01-22T12:08:56.733Z,81.90
2018-01-22T12:11:30.495Z,82.50
2018-01-22T12:14:04.271Z,81.70
2018-01-22T12:16:37.956Z,82.70
2018-01-22T12:19:12.033Z,83.90
2018-01-22T12:21:45.747Z,83.70
2018-01-22T12:24:19.602Z,82.80
2018-01-22T12:26:54.153Z,82.90
2018-01-22T12:29:29.036Z,84.10
2018-01-22T12:32:03.517Z,83.50
2018-01-22T12:34:37.374Z,82.30
2018-01-22T12:37:11.417Z,82.90
2018-01-22T12:39:46.969Z,84.30
2018-01-22T12:42:20.569Z,85.20
2018-01-22T12:44:55.066Z,85.10
2018-01-22T12:47:29.719Z,85.10
2018-01-22T12:50:03.329Z,86.20
2018-01-22T12:52:36.911Z,86.00
2018-01-22T12:55:12.844Z,86.70
2018-01-22T12:57:46.754Z,86.60
2018-01-22T13:00:22.525Z,86.90
2018-01-22T13:02:57.745Z,86.90
2018-01-22T13:05:31.948Z,87.00
2018-01-22T13:08:06.252Z,88.00
2018-01-22T13:10:40.798Z,86.90
2018-01-22T13:13:15.740Z,85.50
2018-01-22T13:15:49.519Z,85.70
2018-01-22T13:18:23.305Z,86.70
2018-01-22T13:20:56.953Z,87.50
2018-01-22T13:23:31.627Z,87.50
2018-01-22T13:26:05.408Z,88.70
2018-01-22T13:28:39.210Z,89.50
2018-01-22T13:31:14.217Z,90.20
2018-01-22T13:33:48.688Z,90.20
2018-01-22T13:36:24.097Z,90.00
2018-01-22T13:38:57.855Z,89.90
2018-01-22T13:41:32.398Z,90.30
2018-01-22T13:44:06.568Z,90.30
2018-01-22T13:46:42.424Z,90.60
2018-01-22T13:49:16.288Z,90.60
2018-01-22T13:51:49.990Z,90.80
2018-01-22T13:54:23.744Z,90.90
2018-01-22T13:56:57.590Z,91.00
2018-01-22T13:59:31.344Z,91.10
2018-01-22T14:02:05.132Z,91.30
2018-01-22T14:04:38.823Z,91.30
2018-01-22T14:07:12.554Z,91.50
2018-01-22T14:09:47.095Z,91.40
2018-01-22T14:12:21.277Z,91.40
2018-01-22T14:14:55.141Z,91.60
2018-01-22T14:17:28.967Z,91.70
2018-01-22T14:20:02.759Z,91.80
2018-01-22T14:22:36.755Z,91.60
2018-01-22T14:25:10.615Z,91.70
2018-01-22T14:27:44.244Z,91.60
2018-01-22T14:30:18.091Z,91.60
2018-01-22T14:32:51.917Z,91.50
2018-01-22T14:35:27.224Z,91.60
2018-01-22T14:38:02.508Z,91.60
2018-01-22T14:40:37.622Z,91.80
2018-01-22T14:43:11.187Z,91.90
2018-01-22T14:45:45.982Z,91.90
2018-01-22T14:48:20.602Z,92.10
2018-01-22T14:50:54.346Z,92.10
2018-01-22T14:53:28.095Z,92.20
2018-01-22T14:56:02.077Z,92.20
2018-01-22T14:58:35.896Z,92.30
2018-01-22T15:01:10.383Z,92.40
2018-01-22T15:03:44.903Z,92.40
2018-01-22T15:06:21.533Z,92.60
2018-01-22T15:08:55.340Z,92.60
2018-01-22T15:11:29.577Z,92.70
2018-01-22T15:14:03.299Z,92.60
2018-01-22T15:16:37.195Z,92.70
2018-01-22T15:19:10.911Z,93.00
2018-01-22T15:21:44.616Z,93.00
2018-01-22T15:24:18.953Z,93.10
2018-01-22T15:26:52.743Z,93.10
2018-01-22T15:29:26.503Z,93.10
2018-01-22T15:32:01.053Z,93.10
2018-01-22T15:34:34.759Z,93.10
2018-01-22T15:37:08.497Z,93.10
2018-01-22T15:39:42.149Z,93.10
2018-01-22T15:42:16.051Z,93.10
2018-01-22T15:44:50.629Z,93.10
2018-01-22T15:47:24.369Z,93.10
2018-01-22T15:49:58.973Z,93.20
2018-01-22T15:52:32.652Z,93.20
2018-01-22T15:55:06.399Z,93.20
2018-01-22T15:57:40.260Z,93.20
2018-01-22T16:00:14.201Z,93.30
2018-01-22T16:02:48.881Z,93.30
2018-01-22T16:05:22.555Z,93.20
2018-01-22T16:07:56.276Z,93.20
2018-01-22T16:10:30.095Z,93.20
2018-01-22T16:13:03.784Z,93.20
2018-01-22T16:15:37.621Z,93.20
2018-01-22T16:18:12.237Z,93.20
2018-01-22T16:20:45.928Z,93.20
2018-01-22T16:23:19.715Z,93.20
2018-01-22T16:25:53.484Z,93.20
2018-01-22T16:28:27.260Z,93.30
2018-01-22T16:31:01.793Z,93.30
2018-01-22T16:33:35.482Z,93.30
2018-01-22T16:36:09.472Z,93.30
2018-01-22T16:38:43.207Z,93.20
2018-01-22T16:41:16.987Z,93.20
2018-01-22T16:43:50.719Z,93.10
2018-01-22T16:46:24.480Z,93.00
2018-01-22T16:48:58.228Z,92.90
2018-01-22T16:51:32.052Z,92.80
2018-01-22T16:54:05.763Z,92.80
2018-01-22T16:56:40.548Z,92.80
2018-01-22T16:59:14.256Z,92.70
2018-01-22T17:01:48.014Z,92.80
2018-01-22T17:04:21.744Z,92.80
2018-01-22T17:06:55.501Z,92.80
2018-01-22T17:09:29.324Z,92.80
2018-01-22T17:12:03.137Z,92.90
2018-01-22T17:14:37.888Z,93.00
2018-01-22T17:17:11.495Z,93.00
2018-01-22T17:19:46.013Z,93.20
2018-01-22T17:22:19.571Z,93.20
2018-01-22T17:24:53.464Z,93.20
2018-01-22T17:27:28.116Z,93.30
2018-01-22T17:30:01.938Z,93.30
2018-01-22T17:32:35.702Z,93.30
2018-01-22T17:35:10.771Z,93.30
2018-01-22T17:37:44.946Z,93.20
2018-01-22T17:40:19.099Z,93.30
2018-01-22T17:42:52.693Z,93.30
2018-01-22T17:45:27.404Z,93.30
2018-01-22T17:48:01.161Z,93.30
2018-01-22T17:50:36.195Z,93.30
2018-01-22T17:53:09.796Z,93.30
2018-01-22T17:55:43.611Z,93.30
2018-01-22T17:58:18.166Z,93.30
2018-01-22T18:00:51.971Z,93.30
2018-01-22T18:03:26.028Z,93.30
2018-01-22T18:05:59.731Z,93.30
2018-01-22T18:08:33.500Z,93.30
2018-01-22T18:11:07.084Z,93.30
2018-01-22T18:13:40.847Z,93.30
2018-01-22T18:16:15.460Z,93.30
2018-01-22T18:18:49.727Z,93.30
2018-01-22T18:21:23.558Z,93.30
2018-01-22T18:23:57.892Z,93.30
2018-01-22T18:26:33.284Z,93.30
2018-01-22T18:29:07.172Z,93.30
2018-01-22T18:31:41.719Z,93.30
2018-01-22T18:34:15.375Z,93.30
2018-01-22T18:36:50.453Z,93.40
2018-01-22T18:39:25.992Z,93.30
2018-01-22T18:42:00.715Z,93.30
2018-01-22T18:44:34.525Z,93.40
2018-01-22T18:47:08.120Z,93.30
2018-01-22T18:49:42.046Z,93.20
2018-01-22T18:52:15.820Z,93.20
2018-01-22T18:54:49.537Z,93.20
2018-01-22T18:57:24.795Z,93.10
2018-01-22T18:59:58.543Z,93.10
2018-01-22T19:02:32.234Z,93.10
2018-01-22T19:05:06.016Z,93.10
2018-01-22T19:07:39.884Z,93.00
2018-01-22T19:10:14.557Z,92.90
2018-01-22T19:12:48.704Z,92.90
2018-01-22T19:15:22.300Z,92.90
2018-01-22T19:17:59.340Z,92.80
2018-01-22T19:23:13.066Z,92.70
2018-01-22T19:25:47.617Z,92.70
2018-01-22T19:28:23.275Z,92.60
2018-01-22T19:30:58.547Z,92.70
2018-01-22T19:33:34.100Z,92.70
2018-01-22T19:38:51.406Z,92.40
2018-01-22T19:41:25.259Z,92.40
2018-01-22T19:43:59.447Z,92.30
2018-01-22T19:46:33.934Z,92.30
2018-01-22T19:49:07.704Z,92.10
2018-01-22T19:51:41.489Z,91.80
2018-01-22T19:54:15.526Z,91.80
2018-01-22T19:56:50.209Z,91.80
2018-01-22T19:59:24.600Z,91.80
2018-01-22T20:01:58.519Z,91.90
2018-01-22T20:04:33.135Z,91.80
2018-01-22T20:07:07.696Z,91.60
2018-01-22T20:09:42.718Z,91.50
2018-01-22T20:12:17.248Z,91.30
2018-01-22T20:14:52.585Z,91.30
2018-01-22T20:17:28.200Z,91.10
2018-01-22T20:20:03.498Z,91.00
2018-01-22T20:22:37.166Z,90.90
2018-01-22T20:25:10.869Z,91.00
2018-01-22T20:27:44.507Z,91.20
2018-01-22T20:30:19.213Z,91.20
2018-01-22T20:32:54.084Z,91.30
2018-01-22T20:35:31.253Z,91.60
2018-01-22T20:38:08.023Z,91.50
2018-01-22T20:40:46.955Z,91.50
2018-01-22T20:43:22.455Z,91.70
2018-01-22T20:46:01.078Z,91.80
2018-01-22T20:48:36.590Z,91.60
2018-01-22T20:51:10.669Z,91.90
2018-01-22T20:53:47.100Z,91.90
2018-01-22T20:59:00.352Z,91.90
2018-01-22T21:01:34.257Z,91.70
2018-01-22T21:04:08.796Z,91.40
2018-01-22T21:06:43.276Z,91.30
2018-01-22T21:09:17.519Z,91.20
2018-01-22T21:11:51.477Z,91.10
2018-01-22T21:14:25.625Z,91.00
2018-01-22T21:19:42.163Z,90.70
2018-01-22T21:22:16.039Z,90.80
2018-01-22T21:24:51.502Z,90.50
2018-01-22T21:27:26.775Z,90.50
2018-01-22T21:30:04.684Z,90.30
2018-01-22T21:32:48.368Z,90.10
2018-01-22T21:35:28.384Z,90.10
2018-01-22T21:43:33.880Z,90.10
2018-01-22T21:46:08.174Z,90.10
2018-01-22T21:48:42.808Z,90.10
2018-01-22T21:56:45.588Z,89.80
2018-01-22T21:59:21.837Z,89.40
2018-01-22T22:02:05.897Z,90.10
2018-01-22T22:04:40.952Z,89.70
2018-01-22T22:13:18.658Z,89.40
2018-01-22T22:16:09.603Z,89.30
2018-01-22T22:18:45.244Z,89.40
2018-01-22T22:26:45.440Z,89.30
2018-01-22T22:29:29.897Z,89.30
2018-01-22T22:32:06.446Z,89.30
2018-01-22T22:34:47.968Z,89.20
2018-01-22T22:37:24.421Z,89.10
2018-01-22T22:40:07.038Z,89.20
2018-01-22T22:45:22.761Z,89.20
2018-01-22T22:48:27.089Z,88.80
2018-01-22T22:51:01.477Z,88.90
2018-01-22T22:53:40.158Z,88.70
2018-01-22T22:58:53.834Z,88.50
2018-01-22T23:01:27.832Z,88.70
2018-01-22T23:04:04.952Z,88.40
2018-01-22T23:09:23.017Z,88.70
2018-01-22T23:11:59.929Z,88.40
2018-01-22T23:14:34.013Z,88.50
2018-01-22T23:19:54.812Z,88.50
2018-01-22T23:22:32.583Z,88.60
2018-01-22T23:25:08.192Z,88.80
2018-01-22T23:27:48.347Z,88.80
2018-01-22T23:30:29.340Z,88.70
2018-01-22T23:33:11.006Z,88.50
2018-01-22T23:35:49.469Z,88.60
2018-01-22T23:38:23.957Z,88.70
2018-01-22T23:41:03.885Z,88.90
2018-01-22T23:43:39.190Z,88.70
2018-01-22T23:49:05.117Z,88.50
2018-01-22T23:54:33.272Z,88.70
2018-01-22T23:57:15.245Z,88.70
2018-01-22T23:59:54.408Z,88.40
